Portada
METAR-TAF:

METAR-TAF

Aeropuertos :

Bruselas, Bélgica

Aeropuerto de Bruselas. Zaventem

latitud: 50-54N, longitud: 004-32E, altitud: 55 m

Observación

El informe se hizo hace 28 minutos, a las 09:20 UTC
Viento 8 kt del sur-sureste
Temperatura 22°C
Humedad 38%
Presión 1026 hPa
Visibilidad 10 km o más
sin nubes por debajo de 1500 m y sin presencia de cumulonimbus.

METAR: EBBR 190920Z 15008KT CAVOK 22/07 Q1026 NOSIG

Hora: 11:48 (09:48 UTC)

Pronóstico

El informe se hizo hace 4 horas y 48 minutos, a las 05:00 UTC
Pronóstico válido del 19 a las 06 UTC al 20 a las 12 UTC
Viento 6 kt del sureste
Visibilidad 10 km o más
sin nubes por debajo de 1500 m y sin presencia de cumulonimbus.

TAF: EBBR 190500Z 1906/2012 14006KT CAVOK

Observaciones y pronósticos meteorológicos de más de 4000 aeropuertos (mensajes METAR y TAF).

Los puntos amarillos y rojos representan las estaciones disponibles.

Ponga el ratón en el punto deseado para ver el nombre de la estación.

Haga clic para ver las observaciones y los pronósticos meteorológicos.

Para cambiar el mapa : haga clic en los botones verdes con una cruz de color negro para hacer un zoom, en el botón verde con un guión para alejar o en las flechas verdes para mapas adyacentes.


METAR-TAF: